Time;durP1;ratioP1;P1;durP2;ratioP2;P2;SDS_P1;SDS_P2;PMS_P1;PMS_P2;Temp;Humidity;BMP_temperature;BMP_pressure;BME280_temperature;BME280_humidity;BME280_pressure;Samples;Min_cycle;Max_cycle;Signal;HPM_P1;HPM_P2
2023/08/05 00:00:12;;;;;;;14.40;8.45;;;;;;;18.01;100.00;-18511.81;5111312;28;20032;-81
2023/08/05 00:02:37;;;;;;;10.55;6.93;;;;;;;18.09;100.00;-18513.97;5113319;28;20487;-81
2023/08/05 00:05:05;;;;;;;12.50;8.27;;;;;;;18.10;100.00;-18514.25;5091758;28;20059;-79
2023/08/05 00:07:30;;;;;;;10.13;7.20;;;;;;;18.19;100.00;-18516.56;5112427;28;20043;-79
2023/08/05 00:09:56;;;;;;;10.65;7.22;;;;;;;18.27;100.00;-18518.75;5113803;28;20617;-79
2023/08/05 00:12:21;;;;;;;11.27;7.45;;;;;;;18.22;100.00;-18517.53;5106100;28;20040;-79
2023/08/05 00:14:47;;;;;;;13.05;8.57;;;;;;;18.19;100.00;-18516.72;5112074;28;20051;-81
2023/08/05 00:17:12;;;;;;;11.13;7.35;;;;;;;18.16;100.00;-18515.91;5110305;28;20600;-80
2023/08/05 00:19:38;;;;;;;13.02;7.43;;;;;;;18.22;100.00;-18517.53;5111613;28;20106;-79
2023/08/05 00:22:03;;;;;;;11.60;7.90;;;;;;;18.56;100.00;-18526.38;5110214;28;20036;-80
2023/08/05 00:24:29;;;;;;;12.85;7.95;;;;;;;18.36;100.00;-18521.06;5106890;28;20036;-78
2023/08/05 00:26:54;;;;;;;10.18;7.55;;;;;;;18.53;100.00;-18525.56;5097468;28;20039;-79
2023/08/05 00:29:19;;;;;;;11.80;7.60;;;;;;;18.44;100.00;-18523.41;5104215;28;20050;-77
2023/08/05 00:31:45;;;;;;;13.25;7.72;;;;;;;18.33;100.00;-18520.25;5109492;28;20047;-79
2023/08/05 00:34:10;;;;;;;12.90;8.38;;;;;;;18.40;100.00;-18522.16;5107080;28;20518;-79
2023/08/05 00:36:35;;;;;;;11.07;7.88;;;;;;;18.23;100.00;-18517.81;5108119;28;20726;-79
2023/08/05 00:39:01;;;;;;;11.40;7.43;;;;;;;18.23;100.00;-18517.66;5107518;28;20042;-79
2023/08/05 00:41:26;;;;;;;9.50;7.32;;;;;;;18.26;100.00;-18518.63;5104705;28;20036;-80
2023/08/05 00:43:51;;;;;;;11.07;7.40;;;;;;;18.22;100.00;-18517.53;5094798;28;20052;-80
2023/08/05 00:46:18;;;;;;;9.90;7.57;;;;;;;18.22;100.00;-18517.53;5108352;28;20040;-77
2023/08/05 00:48:43;;;;;;;13.35;8.02;;;;;;;18.40;100.00;-18522.16;5108039;28;20539;-78
2023/08/05 00:51:10;;;;;;;14.35;7.32;;;;;;;18.44;100.00;-18523.25;5107901;28;20096;-77
2023/08/05 00:53:37;;;;;;;9.73;7.18;;;;;;;18.45;100.00;-18523.53;5107566;28;20104;-77
2023/08/05 00:56:03;;;;;;;11.07;7.75;;;;;;;18.41;100.00;-18522.44;5105703;28;20643;-80
2023/08/05 00:58:31;;;;;;;10.73;7.07;;;;;;;18.42;100.00;-18522.72;5108054;28;20088;-79
2023/08/05 01:00:57;;;;;;;12.60;7.57;;;;;;;18.33;100.00;-18520.41;5107773;28;20043;-79
2023/08/05 01:03:22;;;;;;;10.27;6.50;;;;;;;18.30;100.00;-18519.44;5103466;28;20110;-79
2023/08/05 01:05:50;;;;;;;11.55;6.68;;;;;;;18.44;100.00;-18523.25;5102794;28;20043;-79
2023/08/05 01:08:17;;;;;;;11.98;6.82;;;;;;;18.40;100.00;-18522.16;5087002;28;20043;-79
2023/08/05 01:10:43;;;;;;;12.95;7.93;;;;;;;18.35;100.00;-18520.94;5102495;28;20039;-79
2023/08/05 01:13:09;;;;;;;12.50;7.15;;;;;;;18.37;100.00;-18521.34;5099925;28;20419;-79
2023/08/05 01:15:34;;;;;;;10.63;7.22;;;;;;;18.22;100.00;-18517.41;5102200;28;20040;-79
2023/08/05 01:18:01;;;;;;;9.27;6.68;;;;;;;18.35;100.00;-18520.81;5103828;28;20099;-79
2023/08/05 01:20:33;;;;;;;12.02;7.28;;;;;;;18.26;100.00;-18518.63;5102277;28;20036;-79
2023/08/05 01:23:07;;;;;;;13.38;7.85;;;;;;;18.34;100.00;-18520.66;5103271;28;20032;-78
2023/08/05 01:25:34;;;;;;;10.45;6.95;;;;;;;18.47;100.00;-18524.06;5077679;28;20451;-77
2023/08/05 01:28:01;;;;;;;12.15;7.53;;;;;;;18.35;100.00;-18520.94;5084611;28;20043;-77
2023/08/05 01:30:28;;;;;;;11.82;7.82;;;;;;;18.39;100.00;-18522.03;5102945;28;20063;-76
2023/08/05 01:32:55;;;;;;;9.68;7.18;;;;;;;18.38;100.00;-18521.63;5086187;28;20040;-78
2023/08/05 01:35:22;;;;;;;14.27;7.68;;;;;;;18.39;100.00;-18522.03;5101113;28;20506;-78
2023/08/05 01:37:47;;;;;;;12.82;7.93;;;;;;;18.14;100.00;-18515.34;5101110;28;20043;-76
2023/08/05 01:40:13;;;;;;;9.68;7.22;;;;;;;18.19;100.00;-18516.56;5102399;28;20038;-77
2023/08/05 01:42:38;;;;;;;12.80;7.80;;;;;;;18.32;100.00;-18520.13;5102597;28;20077;-80
2023/08/05 01:45:04;;;;;;;10.13;7.25;;;;;;;18.20;100.00;-18516.97;5085420;28;20035;-80
2023/08/05 01:47:30;;;;;;;11.30;7.78;;;;;;;18.27;100.00;-18518.75;5102169;28;20483;-79
2023/08/05 01:49:55;;;;;;;10.85;7.63;;;;;;;18.30;100.00;-18519.56;5101092;28;20048;-78
2023/08/05 01:52:20;;;;;;;10.52;7.07;;;;;;;18.24;100.00;-18518.06;5103625;28;20127;-78
2023/08/05 01:54:46;;;;;;;11.27;7.53;;;;;;;18.21;100.00;-18517.13;5099906;28;20103;-76
2023/08/05 01:57:11;;;;;;;12.93;7.53;;;;;;;18.23;100.00;-18517.81;5092669;28;20043;-77
2023/08/05 01:59:36;;;;;;;11.55;8.15;;;;;;;18.23;100.00;-18517.66;5104299;28;20045;-79
2023/08/05 02:02:02;;;;;;;11.70;8.60;;;;;;;18.24;100.00;-18517.94;5086382;28;20040;-79
2023/08/05 02:04:27;;;;;;;11.98;9.25;;;;;;;18.20;100.00;-18516.97;5103122;28;21056;-77
2023/08/05 02:06:52;;;;;;;15.32;9.07;;;;;;;18.11;100.00;-18514.53;5102995;28;20073;-78
2023/08/05 02:09:18;;;;;;;14.80;9.05;;;;;;;18.11;100.00;-18514.53;5101772;28;20051;-77
2023/08/05 02:11:43;;;;;;;16.48;9.38;;;;;;;18.15;100.00;-18515.63;5103865;28;20092;-78
2023/08/05 02:14:08;;;;;;;13.43;9.20;;;;;;;18.13;100.00;-18514.94;5103044;28;20050;-77
2023/08/05 02:16:34;;;;;;;13.27;9.00;;;;;;;18.12;100.00;-18514.81;5101453;28;20044;-77
2023/08/05 02:18:59;;;;;;;11.63;8.57;;;;;;;18.14;100.00;-18515.22;5104978;28;20071;-77
2023/08/05 02:21:25;;;;;;;14.32;8.88;;;;;;;18.05;100.00;-18512.91;5102184;28;20092;-76
2023/08/05 02:23:51;;;;;;;10.73;8.15;;;;;;;17.95;100.00;-18510.16;5101818;28;20043;-77
2023/08/05 02:26:17;;;;;;;14.18;8.73;;;;;;;17.85;100.00;-18507.44;5102840;28;20551;-77
2023/08/05 02:28:42;;;;;;;14.75;8.93;;;;;;;17.73;100.00;-18504.44;5104115;28;20043;-77
2023/08/05 02:31:07;;;;;;;17.33;9.10;;;;;;;17.59;100.00;-18500.75;5101642;28;20055;-77
2023/08/05 02:33:33;;;;;;;13.82;8.45;;;;;;;17.72;100.00;-18504.16;5102691;28;20039;-79
2023/08/05 02:35:59;;;;;;;15.27;8.80;;;;;;;17.57;100.00;-18500.19;5102018;28;20093;-77
2023/08/05 02:38:24;;;;;;;13.38;8.50;;;;;;;17.61;100.00;-18501.16;5097036;28;20035;-76
2023/08/05 02:40:50;;;;;;;12.95;8.57;;;;;;;17.58;100.00;-18500.34;5098356;28;20051;-78
2023/08/05 02:43:15;;;;;;;14.32;8.55;;;;;;;17.50;100.00;-18498.28;5102399;28;20479;-78
2023/08/05 02:45:41;;;;;;;13.25;8.57;;;;;;;17.42;100.00;-18495.97;5084905;28;20795;-76
2023/08/05 02:48:07;;;;;;;13.43;8.57;;;;;;;17.31;100.00;-18493.25;5102459;28;20163;-77
2023/08/05 02:50:32;;;;;;;14.70;8.52;;;;;;;17.31;100.00;-18493.25;5087278;28;20036;-77
2023/08/05 02:52:58;;;;;;;14.65;9.52;;;;;;;17.32;100.00;-18493.50;5086119;28;20036;-77
2023/08/05 02:55:23;;;;;;;12.90;8.77;;;;;;;17.27;100.00;-18492.16;5089084;28;20491;-77
2023/08/05 02:57:48;;;;;;;15.00;8.82;;;;;;;17.22;100.00;-18490.66;5101603;28;20040;-77
2023/08/05 03:00:13;;;;;;;12.82;9.32;;;;;;;17.30;100.00;-18492.97;5102360;28;20125;-78
2023/08/05 03:02:39;;;;;;;13.13;9.18;;;;;;;17.22;100.00;-18490.78;5102418;28;20040;-77
2023/08/05 03:05:04;;;;;;;14.70;8.80;;;;;;;16.96;100.00;-18483.81;5083784;28;20047;-78
2023/08/05 03:07:30;;;;;;;14.07;8.80;;;;;;;16.99;100.00;-18484.50;5097290;28;20043;-77
2023/08/05 03:09:55;;;;;;;13.50;8.93;;;;;;;17.00;100.00;-18484.78;5086496;28;20031;-77
2023/08/05 03:12:20;;;;;;;12.82;8.20;;;;;;;17.01;100.00;-18485.19;5101190;28;20047;-78
2023/08/05 03:14:46;;;;;;;15.13;8.90;;;;;;;17.07;100.00;-18486.81;5101853;28;20040;-78
2023/08/05 03:17:11;;;;;;;12.77;7.90;;;;;;;17.02;100.00;-18485.44;5102136;28;20043;-77
2023/08/05 03:19:36;;;;;;;14.40;8.55;;;;;;;17.10;100.00;-18487.50;5101888;28;20046;-77
2023/08/05 03:22:02;;;;;;;12.35;8.23;;;;;;;17.17;100.00;-18489.41;5099465;28;20119;-77
2023/08/05 03:24:27;;;;;;;13.13;8.30;;;;;;;17.21;100.00;-18490.50;5084444;28;20284;-76
2023/08/05 03:26:53;;;;;;;13.63;8.52;;;;;;;17.23;100.00;-18491.06;5100682;28;20057;-77
2023/08/05 03:29:18;;;;;;;13.02;8.27;;;;;;;17.16;100.00;-18489.13;5100801;28;20701;-77
2023/08/05 03:31:43;;;;;;;13.13;8.85;;;;;;;17.18;100.00;-18489.69;5082093;28;20560;-78
2023/08/05 03:34:09;;;;;;;13.25;8.70;;;;;;;17.19;100.00;-18489.81;5103747;28;20067;-78
2023/08/05 03:36:36;;;;;;;12.43;9.43;;;;;;;17.27;100.00;-18492.16;5101784;28;20078;-79
2023/08/05 03:39:01;;;;;;;14.88;8.70;;;;;;;17.22;100.00;-18490.78;5100996;28;20078;-78
2023/08/05 03:41:27;;;;;;;13.05;9.43;;;;;;;17.28;100.00;-18492.28;5105633;28;20143;-76
2023/08/05 03:43:52;;;;;;;13.65;9.80;;;;;;;17.26;100.00;-18491.72;5107863;28;20044;-78
2023/08/05 03:46:18;;;;;;;14.40;9.57;;;;;;;17.10;100.00;-18487.63;5106264;28;20047;-77
2023/08/05 03:48:44;;;;;;;12.63;8.88;;;;;;;17.03;100.00;-18485.59;5106128;28;20032;-77
2023/08/05 03:51:09;;;;;;;15.25;9.35;;;;;;;17.15;100.00;-18488.88;5104463;28;20075;-77
2023/08/05 03:53:35;;;;;;;15.25;9.35;;;;;;;17.28;100.00;-18492.28;5104583;28;20407;-78
2023/08/05 03:56:01;;;;;;;17.30;8.88;;;;;;;17.33;100.00;-18493.78;5105503;28;20035;-77
2023/08/05 03:58:26;;;;;;;13.85;9.50;;;;;;;17.35;100.00;-18494.19;5086449;28;20092;-78
2023/08/05 04:00:52;;;;;;;15.30;9.82;;;;;;;17.40;100.00;-18495.56;5103025;28;20082;-77
2023/08/05 04:03:17;;;;;;;15.07;10.15;;;;;;;17.35;100.00;-18494.19;5106159;28;20421;-78
2023/08/05 04:05:43;;;;;;;14.63;9.25;;;;;;;17.40;100.00;-18495.56;5102890;28;20057;-79
2023/08/05 04:08:08;;;;;;;16.98;9.88;;;;;;;17.23;100.00;-18490.91;5104783;28;20111;-77
2023/08/05 04:10:35;;;;;;;14.98;10.05;;;;;;;17.14;100.00;-18488.72;5104096;28;20044;-77
2023/08/05 04:13:03;;;;;;;13.20;9.13;;;;;;;17.19;100.00;-18489.97;5101569;28;20491;-77
2023/08/05 04:15:30;;;;;;;13.65;9.13;;;;;;;17.21;100.00;-18490.50;5106530;28;20065;-76
2023/08/05 04:17:59;;;;;;;13.25;8.82;;;;;;;17.09;100.00;-18487.22;5106946;28;20028;-78
2023/08/05 04:20:27;;;;;;;13.57;9.10;;;;;;;17.11;100.00;-18487.78;5103861;28;20460;-77
2023/08/05 04:22:52;;;;;;;14.63;9.52;;;;;;;17.25;100.00;-18491.59;5100526;28;20066;-78
2023/08/05 04:25:18;;;;;;;16.45;10.18;;;;;;;17.23;100.00;-18491.06;5104408;28;20040;-77
2023/08/05 04:27:43;;;;;;;16.30;9.50;;;;;;;17.21;100.00;-18490.50;5106647;28;20633;-78
2023/08/05 04:30:09;;;;;;;15.27;10.15;;;;;;;17.30;100.00;-18492.97;5104797;28;20059;-78
2023/08/05 04:32:34;;;;;;;15.05;10.25;;;;;;;17.26;100.00;-18491.72;5101693;28;20122;-77
2023/08/05 04:35:00;;;;;;;16.52;9.77;;;;;;;17.34;100.00;-18494.06;5103441;28;20042;-78
2023/08/05 04:37:26;;;;;;;16.27;10.45;;;;;;;17.38;100.00;-18495.00;5091912;28;20059;-77
2023/08/05 04:39:52;;;;;;;14.85;9.77;;;;;;;17.35;100.00;-18494.34;5099423;28;20450;-78
2023/08/05 04:42:18;;;;;;;16.42;9.48;;;;;;;17.49;100.00;-18497.88;5088902;28;20040;-77
2023/08/05 04:44:43;;;;;;;17.45;10.13;;;;;;;17.53;100.00;-18499.09;5082382;28;20036;-77
2023/08/05 04:47:09;;;;;;;15.30;10.10;;;;;;;17.38;100.00;-18495.00;5105249;28;20054;-79
2023/08/05 04:49:35;;;;;;;20.15;10.48;;;;;;;17.26;100.00;-18491.88;5105278;28;20039;-78
2023/08/05 04:52:05;;;;;;;17.75;10.68;;;;;;;17.33;100.00;-18493.78;5105039;28;20391;-79
2023/08/05 04:54:31;;;;;;;16.50;10.65;;;;;;;17.51;100.00;-18498.44;5104464;28;20039;-77
2023/08/05 04:56:56;;;;;;;17.25;9.75;;;;;;;17.84;100.00;-18507.16;5101210;28;20464;-80
2023/08/05 04:59:22;;;;;;;16.63;10.85;;;;;;;17.91;100.00;-18509.06;5104448;28;20121;-77
2023/08/05 05:01:47;;;;;;;19.58;12.20;;;;;;;17.88;100.00;-18508.38;5107976;28;20044;-78
2023/08/05 05:04:12;;;;;;;18.95;12.38;;;;;;;17.84;100.00;-18507.31;5105309;28;20038;-79
2023/08/05 05:06:38;;;;;;;19.33;12.55;;;;;;;17.83;100.00;-18506.88;5104238;28;20043;-78
2023/08/05 05:09:03;;;;;;;19.15;11.65;;;;;;;17.79;100.00;-18505.94;5105884;28;20442;-78
2023/08/05 05:11:29;;;;;;;19.92;11.32;;;;;;;17.75;100.00;-18504.97;5086871;28;20088;-77
2023/08/05 05:13:56;;;;;;;18.20;11.35;;;;;;;17.71;100.00;-18503.88;5106689;28;20047;-77
2023/08/05 05:16:21;;;;;;;21.02;12.45;;;;;;;17.89;100.00;-18508.53;5104253;28;20062;-76
2023/08/05 05:18:46;;;;;;;19.92;11.60;;;;;;;18.03;100.00;-18512.34;5106441;28;20074;-79
2023/08/05 05:21:12;;;;;;;22.40;13.05;;;;;;;17.96;100.00;-18510.56;5094713;28;20448;-79
2023/08/05 05:23:38;;;;;;;19.88;11.88;;;;;;;18.03;100.00;-18512.34;5108093;28;20130;-77
2023/08/05 05:26:04;;;;;;;19.75;12.13;;;;;;;18.15;100.00;-18515.63;5108725;28;20647;-79
2023/08/05 05:28:29;;;;;;;20.95;11.85;;;;;;;18.26;100.00;-18518.47;5107060;28;20044;-79
2023/08/05 05:30:55;;;;;;;19.40;11.63;;;;;;;18.33;100.00;-18520.25;5109450;28;20430;-79
2023/08/05 05:33:20;;;;;;;18.55;12.13;;;;;;;18.43;100.00;-18522.97;5109087;28;20046;-79
2023/08/05 05:35:49;;;;;;;17.75;11.30;;;;;;;18.54;100.00;-18525.84;5106395;28;20063;-78
2023/08/05 05:38:15;;;;;;;16.45;10.98;;;;;;;18.38;100.00;-18521.75;5107055;28;20044;-79
2023/08/05 05:40:40;;;;;;;19.63;11.38;;;;;;;18.40;100.00;-18522.16;5108133;28;20047;-78
2023/08/05 05:43:07;;;;;;;17.15;11.40;;;;;;;18.40;100.00;-18522.16;5108041;28;20044;-78
2023/08/05 05:45:34;;;;;;;21.25;11.68;;;;;;;18.41;100.00;-18522.44;5104946;28;20028;-79
2023/08/05 05:47:59;;;;;;;15.82;10.85;;;;;;;18.61;100.00;-18527.75;5108069;28;20047;-79
2023/08/05 05:50:25;;;;;;;17.85;10.98;;;;;;;18.59;100.00;-18527.34;5104283;28;20035;-78
2023/08/05 05:52:51;;;;;;;16.40;10.32;;;;;;;18.53;100.00;-18525.72;5102994;28;20043;-79
2023/08/05 05:55:17;;;;;;;19.88;12.05;;;;;;;18.79;100.00;-18532.53;5106433;28;20036;-78
2023/08/05 05:57:45;;;;;;;16.52;10.90;;;;;;;18.90;100.00;-18535.53;5104912;28;20112;-79
2023/08/05 06:00:11;;;;;;;20.77;11.30;;;;;;;18.90;100.00;-18535.53;5088861;28;20047;-79
2023/08/05 06:02:37;;;;;;;14.75;11.27;;;;;;;18.94;100.00;-18536.75;5090373;27;20600;-79
2023/08/05 06:05:06;;;;;;;15.73;10.02;;;;;;;18.74;100.00;-18531.16;5107896;28;20039;-79
2023/08/05 06:07:31;;;;;;;17.70;10.50;;;;;;;18.80;100.00;-18532.94;5104353;28;20123;-78
2023/08/05 06:09:56;;;;;;;19.88;10.40;;;;;;;18.86;100.00;-18534.44;5107720;28;20059;-77
2023/08/05 06:12:24;;;;;;;15.27;9.52;;;;;;;18.93;100.00;-18536.34;5076017;28;20042;-79
2023/08/05 06:14:50;;;;;;;15.85;9.82;;;;;;;19.01;100.00;-18538.53;5077767;28;20048;-77
2023/08/05 06:17:16;;;;;;;15.18;9.10;;;;;;;18.99;100.00;-18537.84;5082206;28;20059;-78
2023/08/05 06:19:42;;;;;;;14.15;8.95;;;;;;;18.99;100.00;-18537.84;5083407;28;20045;-77
2023/08/05 06:22:07;;;;;;;12.85;9.13;;;;;;;18.98;100.00;-18537.72;5084935;28;20192;-80
2023/08/05 06:24:33;;;;;;;15.07;9.77;;;;;;;19.00;100.00;-18538.25;5061314;28;20044;-79
2023/08/05 06:26:58;;;;;;;12.90;8.68;;;;;;;19.00;100.00;-18538.25;5068568;28;20112;-76
2023/08/05 06:29:23;;;;;;;12.93;8.32;;;;;;;19.07;100.00;-18540.03;5084535;28;20055;-79
2023/08/05 06:31:49;;;;;;;12.38;8.85;;;;;;;19.07;100.00;-18540.16;5082041;28;20045;-79
2023/08/05 06:34:14;;;;;;;13.13;8.57;;;;;;;19.15;100.00;-18542.22;5082664;28;20051;-79
2023/08/05 06:36:39;;;;;;;12.27;8.27;;;;;;;19.06;100.00;-18539.91;5079072;28;20069;-80
2023/08/05 06:39:05;;;;;;;10.23;7.95;;;;;;;19.06;100.00;-18539.91;5096901;28;20035;-80
2023/08/05 06:41:31;;;;;;;12.35;7.85;;;;;;;19.19;100.00;-18543.16;5106408;28;20051;-78
2023/08/05 06:43:56;;;;;;;12.40;8.15;;;;;;;19.23;100.00;-18544.25;5110289;28;20032;-78
2023/08/05 06:46:21;;;;;;;17.77;8.23;;;;;;;19.45;100.00;-18550.09;5106363;28;20073;-78
2023/08/05 06:48:47;;;;;;;14.48;8.30;;;;;;;19.51;100.00;-18551.75;5108412;28;20043;-79
2023/08/05 06:51:12;;;;;;;11.25;7.82;;;;;;;19.46;100.00;-18550.38;5108651;28;20537;-78
2023/08/05 06:53:41;;;;;;;14.38;7.15;;;;;;;19.32;100.00;-18546.72;5092910;28;20389;-79
2023/08/05 06:56:06;;;;;;;12.70;7.60;;;;;;;19.26;100.00;-18545.06;5094521;28;20027;-80
2023/08/05 06:58:32;;;;;;;14.75;7.55;;;;;;;19.31;100.00;-18546.56;5108344;28;20848;-79
2023/08/05 07:00:57;;;;;;;13.30;7.50;;;;;;;19.28;100.00;-18545.75;5107435;28;20047;-81
2023/08/05 07:03:25;;;;;;;13.10;8.43;;;;;;;19.31;100.00;-18546.56;5107288;28;20036;-79
2023/08/05 07:05:55;;;;;;;15.17;8.50;;;;;;;19.27;100.00;-18545.34;5109367;28;20154;-79
2023/08/05 07:08:22;;;;;;;12.38;8.52;;;;;;;19.16;100.00;-18542.63;5107390;28;20092;-79
2023/08/05 07:10:58;;;;;;;16.80;8.00;;;;;;;18.98;100.00;-18537.72;5108395;28;20088;-80
2023/08/05 07:13:24;;;;;;;18.33;8.05;;;;;;;18.88;100.00;-18535.00;5107221;28;20477;-79
2023/08/05 07:15:50;;;;;;;14.70;8.40;;;;;;;18.94;100.00;-18536.63;5104860;28;20097;-79
2023/08/05 07:18:16;;;;;;;15.05;8.60;;;;;;;18.94;100.00;-18536.63;5110011;28;20751;-81
2023/08/05 07:20:41;;;;;;;14.80;9.13;;;;;;;18.92;100.00;-18536.22;5109603;28;20052;-79
2023/08/05 07:23:07;;;;;;;15.13;9.15;;;;;;;19.22;100.00;-18544.13;5109548;28;20084;-79
2023/08/05 07:25:32;;;;;;;13.55;8.30;;;;;;;19.27;100.00;-18545.34;5101809;28;20513;-78
2023/08/05 07:27:58;;;;;;;16.25;9.40;;;;;;;19.22;100.00;-18543.97;5098053;28;20498;-79
2023/08/05 07:30:23;;;;;;;14.65;9.32;;;;;;;19.17;100.00;-18542.88;5101463;28;20045;-79
2023/08/05 07:32:49;;;;;;;13.38;8.23;;;;;;;19.17;100.00;-18542.88;5102478;28;20063;-79
2023/08/05 07:35:14;;;;;;;13.45;9.10;;;;;;;19.30;100.00;-18546.16;5084169;28;20031;-78
2023/08/05 07:37:42;;;;;;;15.15;9.68;;;;;;;19.32;100.00;-18546.72;5101187;28;20039;-78
2023/08/05 07:40:12;;;;;;;14.13;9.90;;;;;;;19.47;100.00;-18550.78;5081170;28;20035;-79
2023/08/05 07:42:39;;;;;;;16.83;10.90;;;;;;;19.52;100.00;-18552.03;5104148;28;20063;-78
2023/08/05 07:45:08;;;;;;;15.38;9.88;;;;;;;19.61;100.00;-18554.59;5100785;28;20111;-79
2023/08/05 07:47:39;;;;;;;17.65;10.57;;;;;;;19.38;100.00;-18548.47;5100931;28;20717;-80
2023/08/05 07:50:06;;;;;;;13.07;9.63;;;;;;;19.46;100.00;-18550.53;5104202;28;20066;-79
2023/08/05 07:52:31;;;;;;;20.63;12.63;;;;;;;19.76;100.00;-18558.41;5105280;28;20040;-79
2023/08/05 07:54:58;;;;;;;18.52;12.07;;;;;;;19.86;100.00;-18561.00;5108509;28;20484;-79
2023/08/05 07:57:24;;;;;;;19.55;12.65;;;;;;;19.69;100.00;-18556.53;5106461;28;20063;-78
2023/08/05 07:59:50;;;;;;;21.02;13.05;;;;;;;19.59;100.00;-18554.06;5103375;28;20163;-78
2023/08/05 08:02:16;;;;;;;22.30;14.32;;;;;;;19.81;100.00;-18559.78;5090484;28;20833;-79
2023/08/05 08:04:41;;;;;;;17.75;13.07;;;;;;;20.00;100.00;-18564.97;5109565;28;20143;-79
2023/08/05 08:07:08;;;;;;;23.58;14.07;;;;;;;20.06;100.00;-18566.59;5089368;28;20638;-80
2023/08/05 08:09:34;;;;;;;24.52;15.90;;;;;;;20.14;100.00;-18568.50;5108635;28;20035;-80
2023/08/05 08:11:59;;;;;;;38.83;20.50;;;;;;;20.21;100.00;-18570.41;5108652;28;20092;-79
2023/08/05 08:14:24;;;;;;;39.85;24.60;;;;;;;20.24;100.00;-18571.22;5105977;27;20507;-79
2023/08/05 08:16:50;;;;;;;44.15;26.65;;;;;;;20.34;100.00;-18573.81;5090588;28;20045;-80
2023/08/05 08:19:18;;;;;;;41.17;25.15;;;;;;;20.38;100.00;-18574.91;5084423;28;20063;-79
2023/08/05 08:21:44;;;;;;;40.60;25.42;;;;;;;20.25;100.00;-18571.50;5108578;28;20459;-79
2023/08/05 08:24:09;;;;;;;42.17;25.73;;;;;;;20.28;100.00;-18572.31;5105214;28;20111;-78
2023/08/05 08:26:34;;;;;;;39.50;25.88;;;;;;;20.28;100.00;-18572.31;5104877;28;20062;-80
2023/08/05 08:29:02;;;;;;;40.42;25.73;;;;;;;20.44;100.00;-18576.66;5102808;28;20046;-79
2023/08/05 08:31:30;;;;;;;40.80;25.55;;;;;;;20.66;100.00;-18582.38;5107129;28;20328;-79
2023/08/05 08:33:56;;;;;;;41.35;27.00;;;;;;;20.69;100.00;-18583.19;5103958;28;20051;-79
2023/08/05 08:36:22;;;;;;;38.58;24.70;;;;;;;20.77;100.00;-18585.38;5103849;28;20047;-79
2023/08/05 08:38:47;;;;;;;40.97;28.00;;;;;;;20.81;100.00;-18586.47;5107350;28;20498;-79
2023/08/05 08:41:12;;;;;;;39.67;25.42;;;;;;;20.57;100.00;-18579.94;5105582;28;20047;-79
2023/08/05 08:43:40;;;;;;;37.15;27.58;;;;;;;20.84;100.00;-18587.28;5104612;28;20130;-78
2023/08/05 08:46:07;;;;;;;35.83;27.45;;;;;;;20.85;100.00;-18587.41;5085888;28;20433;-80
2023/08/05 08:48:36;;;;;;;34.13;26.42;;;;;;;21.00;100.00;-18591.50;5105467;28;20043;-80
2023/08/05 08:51:02;;;;;;;36.50;24.70;;;;;;;21.12;100.00;-18594.75;5102974;28;20043;-80
2023/08/05 08:53:27;;;;;;;32.22;22.55;;;;;;;21.04;100.00;-18592.44;5100663;28;20035;-79
2023/08/05 08:55:53;;;;;;;31.80;22.00;;;;;;;21.09;100.00;-18593.81;5105852;28;20043;-80
2023/08/05 08:58:18;;;;;;;25.45;20.10;;;;;;;21.04;100.00;-18592.44;5103201;28;20500;-80
2023/08/05 09:00:45;;;;;;;23.67;17.48;;;;;;;21.12;100.00;-18594.75;5105356;28;20491;-78
2023/08/05 09:03:12;;;;;;;20.33;15.50;;;;;;;21.14;100.00;-18595.16;5103351;28;20386;-79
2023/08/05 09:05:44;;;;;;;22.83;15.27;;;;;;;21.52;100.00;-18605.22;5102407;28;20255;-79
2023/08/05 09:08:09;;;;;;;21.20;14.77;;;;;;;21.64;100.00;-18608.50;5104865;28;20089;-81
2023/08/05 09:10:37;;;;;;;18.63;14.60;;;;;;;21.63;100.00;-18608.22;5111005;28;20048;-78
2023/08/05 09:13:02;;;;;;;20.25;14.07;;;;;;;21.54;100.00;-18605.78;5112475;28;20047;-79
2023/08/05 09:15:37;;;;;;;19.23;13.63;;;;;;;21.32;100.00;-18600.06;5109175;28;20039;-79
2023/08/05 09:18:07;;;;;;;17.55;13.13;;;;;;;21.31;100.00;-18599.78;5112070;28;20031;-80
2023/08/05 09:20:34;;;;;;;20.50;12.82;;;;;;;21.40;100.00;-18602.09;5110566;28;20041;-79
2023/08/05 09:23:04;;;;;;;21.95;15.45;;;;;;;21.58;100.00;-18606.88;5111601;28;20055;-80
2023/08/05 09:25:31;;;;;;;16.17;12.23;;;;;;;21.45;100.00;-18603.31;5110223;28;20086;-78
2023/08/05 09:27:57;;;;;;;20.27;11.73;;;;;;;21.46;100.00;-18603.72;5112898;28;20399;-81
2023/08/05 09:30:23;;;;;;;15.30;10.57;;;;;;;;;;5117082;28;20117;-80
2023/08/05 09:32:49;;;;;;;13.68;10.05;;;;;;;22.10;100.00;-18620.72;5115485;28;20044;-81
2023/08/05 09:35:16;;;;;;;9.30;7.30;;;;;;;22.12;100.00;-18621.13;5110056;28;20034;-79
2023/08/05 09:37:49;;;;;;;10.77;7.38;;;;;;;22.32;100.00;-18626.44;5111319;28;20479;-78
2023/08/05 09:40:33;;;;;;;9.35;7.18;;;;;;;22.49;100.00;-18631.03;5110325;28;20063;-79
2023/08/05 09:43:03;;;;;;;9.38;6.82;;;;;;;22.69;100.00;-18636.34;5118982;28;20028;-80
2023/08/05 09:45:30;;;;;;;5.40;3.70;;;;;;;22.67;100.00;-18635.94;5113130;28;20050;-80
2023/08/05 09:48:04;;;;;;;7.80;4.85;;;;;;;22.71;100.00;-18636.88;5117565;28;20054;-78
2023/08/05 09:50:31;;;;;;;9.82;7.40;;;;;;;22.95;100.00;-18643.25;5114012;28;20043;-78
2023/08/05 09:52:59;;;;;;;7.05;5.68;;;;;;;22.89;100.00;-18641.63;5115976;28;20058;-79
2023/08/05 09:55:27;;;;;;;7.45;5.43;;;;;;;22.91;100.00;-18642.19;5115826;28;20442;-79
2023/08/05 09:57:54;;;;;;;7.05;4.93;;;;;;;22.91;100.00;-18642.31;5109517;28;20092;-79
2023/08/05 10:00:19;;;;;;;7.90;4.57;;;;;;;23.08;100.00;-18646.66;5097876;28;20051;-81
2023/08/05 10:02:45;;;;;;;6.20;3.85;;;;;;;23.01;90.49;-18644.75;5105922;28;20035;-78
2023/08/05 10:05:12;;;;;;;4.70;2.75;;;;;;;22.97;90.72;-18643.81;5101677;28;20380;-78
2023/08/05 10:07:42;;;;;;;5.40;3.50;;;;;;;22.89;93.84;-18641.63;5102092;28;20044;-79
2023/08/05 10:10:15;;;;;;;5.50;3.00;;;;;;;22.94;94.49;-18643.13;5102123;28;20035;-82
2023/08/05 10:12:49;;;;;;;5.07;2.85;;;;;;;23.18;99.88;-18649.38;5100434;28;20035;-79
2023/08/05 10:15:30;;;;;;;5.93;4.18;;;;;;;23.21;93.99;-18650.19;5100028;28;20050;-79
2023/08/05 10:17:57;;;;;;;7.38;5.50;;;;;;;23.44;95.97;-18656.28;5102313;28;20035;-81
2023/08/05 10:20:22;;;;;;;5.47;3.92;;;;;;;23.59;86.69;-18660.34;5099548;28;20099;-81
2023/08/05 10:23:02;;;;;;;5.13;3.40;;;;;;;23.45;89.14;-18656.56;5083599;28;20036;-78
2023/08/05 10:25:44;;;;;;;5.05;2.47;;;;;;;23.44;86.85;-18656.28;5100594;28;20099;-79
2023/08/05 10:28:31;;;;;;;6.07;3.55;;;;;;;23.26;90.39;-18651.53;5101157;28;20043;-77
2023/08/05 10:30:57;;;;;;;5.15;3.33;;;;;;;23.22;94.26;-18650.47;5100191;28;20024;-77
2023/08/05 10:33:24;;;;;;;5.65;3.45;;;;;;;23.27;91.36;-18651.69;5099413;28;20070;-77
2023/08/05 10:35:50;;;;;;;4.18;3.10;;;;;;;23.41;91.93;-18655.47;5099286;28;20789;-78
2023/08/05 10:38:20;;;;;;;4.30;2.95;;;;;;;23.31;94.69;-18652.75;5100738;28;20085;-77
2023/08/05 10:40:56;;;;;;;5.50;3.42;;;;;;;23.27;94.04;-18651.81;5100750;28;20058;-78
2023/08/05 10:43:25;;;;;;;5.47;3.00;;;;;;;23.39;89.25;-18654.94;5099324;28;20038;-78
2023/08/05 10:45:51;;;;;;;7.40;3.78;;;;;;;23.35;89.04;-18653.97;5100691;28;20044;-80
2023/08/05 10:48:17;;;;;;;6.03;3.58;;;;;;;23.28;87.32;-18651.94;5100117;28;20043;-79
2023/08/05 10:50:43;;;;;;;5.82;3.50;;;;;;;23.39;92.67;-18654.94;5087122;28;20035;-78
2023/08/05 10:53:11;;;;;;;4.25;3.45;;;;;;;23.15;90.07;-18648.69;5107781;28;20039;-77
2023/08/05 10:55:49;;;;;;;5.03;4.18;;;;;;;23.42;94.62;-18655.75;5106564;28;20113;-78
2023/08/05 10:58:23;;;;;;;5.95;4.45;;;;;;;23.32;92.03;-18653.03;5106804;28;20498;-79
2023/08/05 11:00:59;;;;;;;5.45;4.10;;;;;;;23.23;97.14;-18650.59;5098667;28;20059;-77
2023/08/05 11:03:29;;;;;;;7.93;3.60;;;;;;;23.17;97.59;-18649.25;5103965;28;20035;-77
2023/08/05 11:05:55;;;;;;;4.53;3.50;;;;;;;23.25;94.89;-18651.28;5103705;28;20048;-79